Time;durP1;ratioP1;P1;durP2;ratioP2;P2;SDS_P1;SDS_P2;PMS_P1;PMS_P2;Temp;Humidity;BMP_temperature;BMP_pressure;BME280_temperature;BME280_humidity;BME280_pressure;Samples;Min_cycle;Max_cycle;Signal;HPM_P1;HPM_P2
2022/06/29 00:01:59;;;;;;;1.03;1.03;;;;;;;17.97;51.50;101605.78;4957913;28;97167;-48
2022/06/29 00:04:24;;;;;;;1.10;1.10;;;;;;;17.93;51.56;101602.53;4956682;28;97099;-49
2022/06/29 00:06:49;;;;;;;1.20;1.10;;;;;;;17.93;51.69;101602.53;4957492;28;104752;-49
2022/06/29 00:09:15;;;;;;;1.10;1.00;;;;;;;17.86;51.69;101599.59;4959911;28;96777;-49
2022/06/29 00:11:40;;;;;;;1.10;1.10;;;;;;;17.74;51.86;101596.13;4959522;28;97373;-49
2022/06/29 00:14:05;;;;;;;1.07;1.07;;;;;;;17.72;52.01;101604.25;4959708;28;96864;-48
2022/06/29 00:16:31;;;;;;;1.27;1.00;;;;;;;17.71;51.99;101599.22;4953573;28;96987;-49
2022/06/29 00:18:56;;;;;;;1.63;1.20;;;;;;;17.67;51.95;101588.34;4954531;28;96791;-51
2022/06/29 00:21:22;;;;;;;1.03;1.03;;;;;;;17.62;52.15;101589.16;4954984;28;98277;-49
2022/06/29 00:23:47;;;;;;;2.10;1.07;;;;;;;17.58;52.13;101588.66;4958667;28;96878;-48
2022/06/29 00:26:12;;;;;;;1.60;1.40;;;;;;;17.53;52.19;101581.13;4956573;28;103103;-49
2022/06/29 00:28:38;;;;;;;1.53;1.30;;;;;;;17.48;52.34;101583.91;4958620;28;97037;-49
2022/06/29 00:31:03;;;;;;;1.53;1.43;;;;;;;17.45;52.36;101582.91;4957576;28;97290;-49
2022/06/29 00:33:29;;;;;;;1.27;1.17;;;;;;;17.39;52.39;101576.66;4960307;28;97185;-49
2022/06/29 00:35:54;;;;;;;1.10;1.10;;;;;;;17.36;52.54;101577.72;4954679;28;98341;-48
2022/06/29 00:38:19;;;;;;;1.00;1.00;;;;;;;17.34;52.50;101577.47;4951931;28;97153;-48
2022/06/29 00:40:45;;;;;;;1.00;1.00;;;;;;;17.32;52.61;101582.03;4952350;28;97507;-53
2022/06/29 00:43:11;;;;;;;1.50;1.40;;;;;;;17.27;52.68;101580.81;4955988;28;97573;-49
2022/06/29 00:45:36;;;;;;;1.03;1.03;;;;;;;17.25;52.79;101586.13;4955083;28;98025;-49
2022/06/29 00:48:01;;;;;;;1.80;1.10;;;;;;;17.18;52.88;101581.88;4955241;28;97000;-48
2022/06/29 00:50:30;;;;;;;1.00;1.00;;;;;;;17.16;52.98;101587.19;4955024;28;97330;-48
2022/06/29 00:53:00;;;;;;;1.63;1.53;;;;;;;17.16;53.15;101592.00;4955680;28;97999;-53
2022/06/29 00:55:29;;;;;;;3.33;1.20;;;;;;;17.16;53.14;101578.09;4957768;28;97106;-49
2022/06/29 00:57:57;;;;;;;1.30;1.20;;;;;;;17.17;53.00;101579.59;4954040;28;97204;-48
2022/06/29 01:00:23;;;;;;;3.33;1.57;;;;;;;17.19;52.98;101585.38;4954148;28;96998;-48
2022/06/29 01:02:49;;;;;;;2.63;1.50;;;;;;;17.18;53.01;101575.56;4953919;28;97397;-48
2022/06/29 01:05:15;;;;;;;1.10;1.10;;;;;;;17.18;52.97;101579.09;4949015;28;97003;-49
2022/06/29 01:07:41;;;;;;;2.00;1.40;;;;;;;17.17;53.05;101577.56;4957055;28;97322;-49
2022/06/29 01:10:07;;;;;;;1.53;1.43;;;;;;;17.17;52.94;101583.13;4949861;28;97167;-48
2022/06/29 01:12:32;;;;;;;1.90;1.10;;;;;;;17.18;52.93;101581.13;4957103;28;96844;-49
2022/06/29 01:14:58;;;;;;;1.30;1.30;;;;;;;17.16;53.09;101576.06;4954922;28;96879;-48
2022/06/29 01:17:24;;;;;;;1.27;1.17;;;;;;;17.14;53.09;101566.72;4957020;28;97302;-49
2022/06/29 01:19:50;;;;;;;1.23;1.20;;;;;;;17.11;53.10;101562.94;4955761;28;96863;-52
2022/06/29 01:22:18;;;;;;;1.20;1.10;;;;;;;17.11;53.16;101562.19;4954167;28;97539;-49
2022/06/29 01:24:44;;;;;;;1.10;1.10;;;;;;;17.07;53.28;101562.47;4954363;28;98325;-48
2022/06/29 01:27:10;;;;;;;2.00;1.57;;;;;;;17.01;53.28;101561.75;4956825;28;96947;-49
2022/06/29 01:29:36;;;;;;;0.90;0.90;;;;;;;16.97;53.45;101563.31;4953554;28;97095;-49
2022/06/29 01:32:02;;;;;;;1.20;1.10;;;;;;;16.93;53.47;101552.44;4957676;28;97921;-49
2022/06/29 01:34:29;;;;;;;1.33;1.33;;;;;;;16.94;53.57;101558.75;4953257;28;96922;-48
2022/06/29 01:36:55;;;;;;;1.33;1.23;;;;;;;16.92;53.51;101561.31;4956341;28;96848;-49
2022/06/29 01:39:20;;;;;;;1.17;1.17;;;;;;;16.90;53.56;101555.50;4956337;28;98939;-48
2022/06/29 01:41:45;;;;;;;1.33;1.07;;;;;;;16.87;53.56;101559.31;4956508;28;99956;-49
2022/06/29 01:44:11;;;;;;;1.10;1.00;;;;;;;16.86;53.64;101555.75;4955872;28;96899;-49
2022/06/29 01:46:36;;;;;;;1.70;1.10;;;;;;;16.85;53.70;101545.94;4953019;28;97401;-48
2022/06/29 01:49:02;;;;;;;1.40;1.40;;;;;;;16.84;53.65;101549.22;4956379;28;96879;-49
2022/06/29 01:51:28;;;;;;;1.60;1.50;;;;;;;16.80;53.82;101552.25;4952078;28;96804;-48
2022/06/29 01:53:53;;;;;;;0.93;0.93;;;;;;;16.78;53.80;101545.72;4958187;28;97204;-48
2022/06/29 01:56:19;;;;;;;1.60;1.37;;;;;;;16.75;53.75;101543.97;4949804;28;97646;-48
2022/06/29 01:58:45;;;;;;;1.50;1.20;;;;;;;16.73;53.93;101541.69;4961287;28;97589;-49
2022/06/29 02:01:11;;;;;;;1.40;1.30;;;;;;;16.72;54.00;101534.63;4959076;28;98586;-49
2022/06/29 02:03:37;;;;;;;2.30;0.93;;;;;;;16.76;53.88;101532.34;4960855;28;97519;-48
2022/06/29 02:06:02;;;;;;;1.37;1.00;;;;;;;16.77;53.92;101519.97;4953576;28;97150;-49
2022/06/29 02:08:28;;;;;;;1.53;1.47;;;;;;;16.78;53.96;101523.47;4955254;28;97602;-49
2022/06/29 02:10:53;;;;;;;1.43;1.17;;;;;;;16.78;53.86;101521.47;4959789;28;97150;-49
2022/06/29 02:13:18;;;;;;;1.37;1.30;;;;;;;16.80;53.80;101526.50;4958974;28;97346;-48
2022/06/29 02:15:44;;;;;;;0.93;0.83;;;;;;;16.80;53.87;101523.72;4955605;28;97224;-49
2022/06/29 02:18:10;;;;;;;0.90;0.90;;;;;;;16.80;53.75;101515.38;4957473;28;96988;-54
2022/06/29 02:20:35;;;;;;;1.50;1.50;;;;;;;16.79;53.84;101519.44;4961224;28;97524;-49
2022/06/29 02:23:00;;;;;;;1.60;1.27;;;;;;;16.80;53.82;101518.16;4963037;28;97343;-48
2022/06/29 02:25:26;;;;;;;1.10;1.00;;;;;;;16.81;53.93;101533.56;4964510;28;98129;-48
2022/06/29 02:27:51;;;;;;;1.20;1.20;;;;;;;16.81;53.68;101517.66;4959678;28;97048;-49
2022/06/29 02:30:17;;;;;;;2.60;1.47;;;;;;;16.78;53.81;101504.78;4962576;28;96911;-48
2022/06/29 02:35:27;;;;;;;1.60;1.50;;;;;;;16.75;53.79;101508.59;4959031;28;97051;-49
2022/06/29 02:37:53;;;;;;;1.20;1.20;;;;;;;16.71;53.82;101507.38;4957205;28;96849;-48
2022/06/29 02:40:18;;;;;;;1.30;1.30;;;;;;;16.67;53.93;101506.88;4958516;28;97571;-48
2022/06/29 02:42:43;;;;;;;1.30;1.30;;;;;;;16.63;54.07;101501.59;4966879;28;97232;-48
2022/06/29 02:45:09;;;;;;;1.13;1.13;;;;;;;16.65;54.04;101503.84;4950919;28;97632;-49
2022/06/29 02:47:35;;;;;;;1.60;1.50;;;;;;;16.67;54.04;101509.63;4955465;28;96853;-49
2022/06/29 02:50:00;;;;;;;1.27;1.27;;;;;;;16.70;54.06;101512.16;4949167;28;106009;-49
2022/06/29 02:52:25;;;;;;;1.40;1.30;;;;;;;16.73;54.09;101515.94;4953293;28;97124;-48
2022/06/29 02:54:51;;;;;;;1.67;0.93;;;;;;;16.74;54.08;101523.00;4953293;28;96950;-48
2022/06/29 02:57:16;;;;;;;1.33;1.30;;;;;;;16.71;54.09;101512.94;4951508;28;96938;-48
2022/06/29 02:59:41;;;;;;;1.50;1.40;;;;;;;16.67;54.07;101510.41;4957896;28;97453;-49
2022/06/29 03:02:07;;;;;;;1.67;1.57;;;;;;;16.58;54.22;101513.47;4956663;28;96898;-48
2022/06/29 03:04:34;;;;;;;2.47;1.20;;;;;;;16.50;54.21;101509.75;4950312;28;97282;-48
2022/06/29 03:07:00;;;;;;;1.60;1.50;;;;;;;16.45;54.41;101499.38;4956656;28;97068;-48
2022/06/29 03:09:25;;;;;;;1.17;1.17;;;;;;;16.42;54.45;101497.63;4944633;28;97411;-49
2022/06/29 03:11:50;;;;;;;3.63;1.20;;;;;;;16.39;54.56;101493.09;4955469;28;97223;-49
2022/06/29 03:14:16;;;;;;;1.40;1.30;;;;;;;16.35;54.66;101493.38;4950846;28;96994;-48
2022/06/29 03:16:41;;;;;;;2.33;1.70;;;;;;;16.33;54.65;101489.59;4951176;28;97165;-50
2022/06/29 03:19:07;;;;;;;1.50;1.50;;;;;;;16.30;54.79;101496.94;4952224;28;97725;-49
2022/06/29 03:21:32;;;;;;;1.57;1.47;;;;;;;16.34;54.77;101489.06;4954263;28;98543;-49
2022/06/29 03:23:57;;;;;;;1.50;1.50;;;;;;;16.36;54.83;101494.09;4955253;28;97145;-48
2022/06/29 03:26:23;;;;;;;1.13;1.13;;;;;;;16.35;54.97;101493.38;4959207;28;97668;-49
2022/06/29 03:28:52;;;;;;;2.20;1.30;;;;;;;16.36;54.63;101494.88;4959162;28;96953;-49
2022/06/29 03:31:19;;;;;;;2.20;1.27;;;;;;;16.38;54.80;101494.38;4954840;28;98078;-48
2022/06/29 03:33:44;;;;;;;1.77;1.60;;;;;;;16.38;54.79;101492.34;4950706;28;99423;-48
2022/06/29 03:36:09;;;;;;;2.20;1.50;;;;;;;16.37;54.91;101495.63;4950430;28;97606;-48
2022/06/29 03:38:35;;;;;;;1.50;1.23;;;;;;;16.34;54.93;101491.09;4953797;28;97040;-49
2022/06/29 03:41:00;;;;;;;5.50;1.33;;;;;;;16.35;55.04;101493.38;4957546;28;97238;-49
2022/06/29 03:43:26;;;;;;;1.27;1.23;;;;;;;16.41;55.02;101499.66;4959199;28;96986;-49
2022/06/29 03:45:51;;;;;;;1.30;1.20;;;;;;;16.44;55.05;101493.09;4959915;28;97394;-49
2022/06/29 03:48:17;;;;;;;2.50;1.53;;;;;;;16.45;55.03;101489.03;4956371;28;97336;-49
2022/06/29 03:50:42;;;;;;;1.50;1.50;;;;;;;16.47;54.96;101492.03;4956449;28;96808;-49
2022/06/29 03:53:08;;;;;;;1.47;1.37;;;;;;;16.49;55.01;101485.97;4941137;28;97989;-49
2022/06/29 03:55:33;;;;;;;1.77;1.67;;;;;;;16.51;55.16;101477.16;4957380;28;97198;-48
2022/06/29 03:57:59;;;;;;;1.60;1.60;;;;;;;16.53;55.16;101482.97;4954457;28;108846;-49
2022/06/29 04:00:24;;;;;;;1.40;1.30;;;;;;;16.56;55.08;101493.78;4953065;28;97223;-48
2022/06/29 04:02:49;;;;;;;1.70;1.60;;;;;;;16.62;55.21;101491.00;4954524;28;97335;-49
2022/06/29 04:05:15;;;;;;;1.73;1.37;;;;;;;16.66;55.09;101489.47;4930475;28;96924;-49
2022/06/29 04:07:40;;;;;;;1.60;1.50;;;;;;;16.72;55.08;101492.19;4943683;28;98724;-49
2022/06/29 04:10:06;;;;;;;1.70;1.60;;;;;;;16.74;55.12;101498.75;4908015;28;96817;-48
2022/06/29 04:12:35;;;;;;;1.80;1.60;;;;;;;16.75;55.21;101497.50;4930435;28;97898;-49
2022/06/29 04:15:01;;;;;;;1.70;1.60;;;;;;;16.76;55.19;101496.19;4906178;28;97268;-48
2022/06/29 04:17:27;;;;;;;1.50;1.40;;;;;;;16.74;55.29;101495.19;4905099;28;97248;-49
2022/06/29 04:19:52;;;;;;;1.27;1.27;;;;;;;16.77;55.42;101494.94;4930395;28;97119;-49
2022/06/29 04:22:22;;;;;;;1.97;1.37;;;;;;;16.84;55.33;101496.41;4905465;28;97137;-49
2022/06/29 04:24:48;;;;;;;7.23;1.70;;;;;;;16.89;55.36;101503.94;4902831;28;97240;-49
2022/06/29 04:27:14;;;;;;;2.30;1.50;;;;;;;16.91;55.29;101499.38;4932894;28;97533;-48
2022/06/29 04:29:39;;;;;;;1.17;1.17;;;;;;;16.95;55.37;101505.44;4909159;28;98289;-50
2022/06/29 04:32:05;;;;;;;1.60;1.50;;;;;;;17.00;55.38;101498.31;4933119;28;97388;-49
2022/06/29 04:34:31;;;;;;;2.30;1.20;;;;;;;17.02;55.45;101499.31;4910433;28;96964;-49
2022/06/29 04:36:56;;;;;;;1.57;1.50;;;;;;;17.06;55.49;101496.25;4908368;28;97456;-49
2022/06/29 04:39:22;;;;;;;1.43;1.23;;;;;;;17.05;55.53;101497.53;4931210;28;97208;-49
2022/06/29 04:41:48;;;;;;;1.63;1.23;;;;;;;17.17;55.60;101496.16;4906397;28;97010;-49
2022/06/29 04:44:13;;;;;;;1.40;1.40;;;;;;;17.24;55.55;101498.38;4903702;28;97024;-49
2022/06/29 04:46:39;;;;;;;3.57;1.40;;;;;;;17.24;55.68;101495.59;4936341;28;97424;-49
2022/06/29 04:49:05;;;;;;;1.10;1.10;;;;;;;17.28;55.67;101498.84;4904639;28;97273;-49
2022/06/29 04:51:32;;;;;;;1.70;1.60;;;;;;;17.34;55.71;101499.59;4934233;28;96714;-49
2022/06/29 16:17:52;;;;;;;1.00;0.70;;;;;;;31.15;31.24;101137.22;5006099;27;101348;-50
2022/06/29 16:20:18;;;;;;;1.10;0.90;;;;;;;31.12;30.99;101141.31;5034775;27;97035;-48
2022/06/29 16:22:43;;;;;;;1.10;1.00;;;;;;;31.09;30.99;101141.19;5036608;27;97291;-49
2022/06/29 16:25:09;;;;;;;2.13;1.03;;;;;;;31.06;31.08;101133.19;5039307;27;96908;-49
2022/06/29 16:27:35;;;;;;;1.33;0.90;;;;;;;30.96;30.67;101141.16;5038519;27;98316;-49
2022/06/29 16:30:00;;;;;;;1.07;0.87;;;;;;;30.91;30.88;101130.91;5039338;27;97167;-48
2022/06/29 16:32:26;;;;;;;0.80;0.80;;;;;;;30.85;30.66;101139.81;5038307;27;96855;-49
2022/06/29 16:34:51;;;;;;;2.00;0.70;;;;;;;30.83;31.03;101139.69;5038157;27;97781;-48
2022/06/29 16:37:16;;;;;;;1.43;0.93;;;;;;;30.81;30.91;101133.16;5017911;27;107198;-48
2022/06/29 16:39:42;;;;;;;1.23;1.13;;;;;;;30.73;30.67;101146.91;5015644;27;97305;-49
2022/06/29 16:42:08;;;;;;;1.33;1.10;;;;;;;30.62;30.86;101142.00;5015544;27;96888;-49
2022/06/29 16:44:33;;;;;;;1.20;0.90;;;;;;;30.58;31.05;101133.97;5012699;27;96812;-48
2022/06/29 16:46:59;;;;;;;0.70;0.70;;;;;;;30.55;30.72;101140.94;5017636;27;96741;-48
2022/06/29 16:49:25;;;;;;;1.07;1.00;;;;;;;30.50;30.98;101138.47;5019533;27;97148;-48
2022/06/29 16:51:50;;;;;;;1.10;1.10;;;;;;;30.48;30.92;101139.09;5020941;27;97045;-48
2022/06/29 16:54:16;;;;;;;0.80;0.60;;;;;;;30.43;30.83;101133.81;5022818;27;96959;-49
2022/06/29 16:56:42;;;;;;;2.50;1.13;;;;;;;30.41;30.93;101134.41;5016445;27;97007;-50
2022/06/29 16:59:08;;;;;;;0.67;0.60;;;;;;;30.36;31.12;101136.28;5018825;27;97441;-48
2022/06/29 17:01:33;;;;;;;0.87;0.87;;;;;;;30.34;31.31;101121.22;5010692;27;96833;-49
2022/06/29 17:03:58;;;;;;;0.83;0.83;;;;;;;30.25;31.41;101130.63;5017691;27;97219;-49
2022/06/29 17:06:24;;;;;;;1.00;0.90;;;;;;;30.17;31.04;101128.03;5019198;27;99433;-49
2022/06/29 17:08:50;;;;;;;1.17;1.07;;;;;;;30.11;31.49;101132.63;5020210;27;97610;-49
2022/06/29 17:11:16;;;;;;;0.97;0.87;;;;;;;30.12;31.63;101129.16;5015386;27;97105;-48
2022/06/29 17:13:41;;;;;;;1.13;0.87;;;;;;;30.11;31.94;101132.63;5018758;27;96958;-48
2022/06/29 17:16:07;;;;;;;3.07;0.70;;;;;;;30.06;31.57;101125.94;5018930;27;103335;-48
2022/06/29 17:18:32;;;;;;;1.00;0.90;;;;;;;30.04;31.41;101127.94;5017279;27;96740;-49
2022/06/29 17:20:58;;;;;;;1.07;0.70;;;;;;;29.97;31.45;101124.00;5019331;27;96776;-48
2022/06/29 17:23:24;;;;;;;3.53;0.90;;;;;;;29.91;31.28;101117.97;5018694;27;97370;-49
2022/06/29 17:25:49;;;;;;;1.17;0.80;;;;;;;29.83;31.55;101117.47;5014959;27;97356;-49
2022/06/29 17:28:14;;;;;;;6.57;1.20;;;;;;;29.82;31.88;101118.81;5023100;27;97409;-49
2022/06/29 17:30:40;;;;;;;0.90;0.90;;;;;;;29.79;31.69;101125.00;5019287;27;96850;-49
2022/06/29 17:33:05;;;;;;;0.70;0.60;;;;;;;29.73;31.66;101127.44;5022606;27;97904;-48
2022/06/29 17:35:30;;;;;;;0.70;0.70;;;;;;;29.66;31.78;101120.66;5018307;27;97755;-48
2022/06/29 17:37:56;;;;;;;1.27;0.70;;;;;;;29.60;31.76;101121.03;5023212;27;96916;-49
2022/06/29 17:40:21;;;;;;;0.80;0.70;;;;;;;29.57;31.89;101115.84;5014627;27;96931;-51
2022/06/29 17:42:47;;;;;;;1.27;0.73;;;;;;;29.55;32.24;101119.28;5020877;27;97499;-48
2022/06/29 17:45:12;;;;;;;0.90;0.90;;;;;;;29.51;32.16;101121.13;5019317;27;97225;-49
2022/06/29 17:47:38;;;;;;;2.50;0.87;;;;;;;29.48;32.13;101120.28;5016438;27;97258;-49
2022/06/29 17:50:04;;;;;;;0.90;0.77;;;;;;;29.42;32.00;101122.00;5016875;27;96849;-50
2022/06/29 17:52:30;;;;;;;0.80;0.80;;;;;;;29.42;32.14;101113.50;5021592;27;96932;-52
2022/06/29 17:54:55;;;;;;;1.13;1.00;;;;;;;29.37;31.83;101117.44;5022816;27;97648;-48
2022/06/29 17:57:20;;;;;;;0.77;0.77;;;;;;;29.31;32.17;101117.78;5024030;27;97655;-48
2022/06/29 17:59:46;;;;;;;0.80;0.80;;;;;;;29.25;31.73;101122.34;5022597;27;97832;-48
2022/06/29 18:02:11;;;;;;;1.10;1.10;;;;;;;29.20;31.94;101126.28;5019582;27;97910;-48
2022/06/29 18:04:38;;;;;;;1.53;0.60;;;;;;;29.15;32.10;101116.75;5020938;27;99193;-49
2022/06/29 18:07:05;;;;;;;2.00;0.80;;;;;;;29.13;32.21;101113.81;5019554;28;97222;-49
2022/06/29 18:09:30;;;;;;;1.40;0.77;;;;;;;29.12;32.47;101108.72;5019634;27;97242;-51
2022/06/29 18:11:56;;;;;;;0.80;0.80;;;;;;;29.12;32.25;101117.97;5018131;27;97960;-49
2022/06/29 18:14:22;;;;;;;0.80;0.70;;;;;;;29.09;32.28;101124.13;5020068;27;97102;-50
2022/06/29 18:16:47;;;;;;;0.70;0.70;;;;;;;29.05;32.75;101110.44;5028364;27;96645;-49
2022/06/29 18:19:13;;;;;;;0.90;0.70;;;;;;;28.96;32.65;101119.06;5029652;27;96927;-49
2022/06/29 18:21:40;;;;;;;1.10;0.90;;;;;;;28.86;32.48;101114.22;5023971;27;97350;-50
2022/06/29 18:24:07;;;;;;;1.83;0.90;;;;;;;28.78;32.57;101112.97;5027016;27;96883;-48
2022/06/29 18:26:34;;;;;;;0.70;0.70;;;;;;;28.72;32.70;101109.75;5027890;27;97077;-48
2022/06/29 18:29:00;;;;;;;2.80;0.90;;;;;;;28.67;32.72;101105.16;5031043;27;97151;-49
2022/06/29 18:31:27;;;;;;;0.80;0.70;;;;;;;28.63;32.77;101108.47;5029408;27;97243;-49
2022/06/29 18:33:53;;;;;;;2.00;0.90;;;;;;;28.60;32.81;101111.78;5025542;27;97112;-49
2022/06/29 18:36:19;;;;;;;1.10;0.80;;;;;;;28.53;32.94;101109.84;5017147;27;97048;-49
2022/06/29 18:38:44;;;;;;;0.90;0.60;;;;;;;28.50;33.19;101111.09;5021475;27;96960;-48
2022/06/29 18:41:10;;;;;;;0.83;0.83;;;;;;;28.44;33.32;101119.19;5024709;27;97402;-49
2022/06/29 18:43:36;;;;;;;1.30;1.17;;;;;;;28.35;33.17;101151.88;5020327;27;98496;-48
2022/06/29 18:46:01;;;;;;;1.43;0.73;;;;;;;28.29;33.00;101125.97;5025833;27;98700;-48
2022/06/29 18:48:28;;;;;;;0.80;0.70;;;;;;;28.21;33.25;101122.63;5022666;27;97266;-48
2022/06/29 18:50:54;;;;;;;1.90;0.70;;;;;;;28.13;33.14;101131.28;5013471;27;96758;-48
2022/06/29 18:53:21;;;;;;;1.00;0.73;;;;;;;28.05;32.91;101124.34;5020862;27;98063;-49
2022/06/29 18:55:46;;;;;;;0.70;0.63;;;;;;;28.02;33.57;101125.59;5025461;27;97302;-49
2022/06/29 18:58:11;;;;;;;1.00;0.67;;;;;;;27.92;33.18;101128.44;5023440;27;97369;-48
2022/06/29 19:00:37;;;;;;;0.70;0.70;;;;;;;27.87;33.76;101123.81;5021767;27;97683;-49
2022/06/29 19:03:03;;;;;;;1.33;1.20;;;;;;;27.85;33.78;101120.88;5022899;27;97056;-48
2022/06/29 19:05:29;;;;;;;0.90;0.80;;;;;;;27.83;33.76;101126.38;5023746;27;97049;-49
2022/06/29 19:07:55;;;;;;;0.80;0.70;;;;;;;27.76;34.05;101130.13;5025787;27;96880;-49
2022/06/29 19:10:20;;;;;;;1.73;0.87;;;;;;;27.67;34.14;101128.13;5024923;27;97483;-49
2022/06/29 19:12:45;;;;;;;1.23;0.93;;;;;;;27.59;34.21;101129.66;5022318;27;97377;-50
2022/06/29 19:15:11;;;;;;;1.20;0.90;;;;;;;27.55;33.92;101135.75;5022839;28;97431;-50
2022/06/29 19:17:36;;;;;;;0.70;0.67;;;;;;;27.46;34.02;101134.44;5020803;27;97057;-48
2022/06/29 19:20:02;;;;;;;0.80;0.80;;;;;;;27.43;34.17;101132.78;5019352;27;96808;-47
2022/06/29 19:22:29;;;;;;;0.90;0.77;;;;;;;27.33;34.15;101134.91;5020175;27;97357;-48
2022/06/29 19:24:55;;;;;;;0.70;0.70;;;;;;;27.29;34.15;101137.44;5022850;27;96874;-49
2022/06/29 19:27:20;;;;;;;0.93;0.93;;;;;;;27.25;34.37;101142.06;5027483;27;97310;-48
2022/06/29 19:29:45;;;;;;;2.97;0.97;;;;;;;27.17;34.35;101144.31;5014974;27;97001;-49
2022/06/29 19:32:11;;;;;;;1.53;0.70;;;;;;;27.05;34.58;101152.66;5018696;27;97116;-49
2022/06/29 19:34:36;;;;;;;1.00;1.00;;;;;;;26.97;34.61;101156.97;5014136;27;96688;-48
2022/06/29 19:37:02;;;;;;;1.73;0.90;;;;;;;26.91;34.68;101148.06;5015812;27;98392;-51
2022/06/29 19:39:27;;;;;;;0.90;0.60;;;;;;;26.83;34.75;101147.47;5019385;27;97382;-49
2022/06/29 19:41:53;;;;;;;1.07;1.07;;;;;;;26.76;34.97;101146.28;5018013;27;97444;-49
2022/06/29 19:44:18;;;;;;;2.13;0.90;;;;;;;26.67;34.93;101144.91;5020027;27;97191;-50
2022/06/29 19:46:44;;;;;;;0.80;0.70;;;;;;;26.64;35.59;101151.00;5017612;27;97052;-50
2022/06/29 19:49:10;;;;;;;0.80;0.80;;;;;;;26.61;35.79;101158.59;5021750;27;97423;-48
2022/06/29 19:51:36;;;;;;;1.00;0.90;;;;;;;26.55;35.75;101160.97;5015453;27;97752;-49
2022/06/29 19:54:01;;;;;;;0.70;0.70;;;;;;;26.50;35.67;101161.25;5015329;27;97203;-49
2022/06/29 19:56:26;;;;;;;0.90;0.67;;;;;;;26.44;36.20;101160.81;5016890;27;96985;-47
2022/06/29 19:58:52;;;;;;;1.07;0.80;;;;;;;26.34;35.61;101163.59;5015155;27;97156;-49
2022/06/29 20:01:18;;;;;;;0.80;0.80;;;;;;;26.30;36.27;101163.28;5014384;27;97226;-49
2022/06/29 20:03:44;;;;;;;0.90;0.80;;;;;;;26.21;36.13;101168.94;5018785;27;97272;-48
2022/06/29 20:06:11;;;;;;;1.20;0.73;;;;;;;26.12;35.98;101164.75;5023239;27;97181;-49
2022/06/29 20:08:37;;;;;;;1.00;0.90;;;;;;;26.05;36.14;101157.13;5018786;27;97055;-50
2022/06/29 20:11:09;;;;;;;1.13;1.00;;;;;;;25.99;36.12;101163.03;5027214;27;97126;-50
2022/06/29 20:13:36;;;;;;;1.20;0.70;;;;;;;25.94;36.41;101163.34;5015725;27;96980;-48
2022/06/29 20:16:03;;;;;;;2.30;1.00;;;;;;;25.86;36.35;101168.34;5016425;27;97107;-49
2022/06/29 20:18:29;;;;;;;1.13;1.03;;;;;;;25.77;36.46;101169.06;5012555;27;97437;-48
2022/06/29 20:20:55;;;;;;;0.93;0.90;;;;;;;25.67;36.86;101162.63;5015035;27;97149;-49
2022/06/29 20:23:22;;;;;;;1.60;1.03;;;;;;;25.58;36.82;101161.25;5015498;27;96891;-48
2022/06/29 20:25:49;;;;;;;1.00;0.80;;;;;;;25.49;37.08;101164.03;5012285;27;97060;-48
2022/06/29 20:28:14;;;;;;;1.23;0.93;;;;;;;25.38;37.01;101164.53;5015981;27;96983;-48
2022/06/29 20:30:40;;;;;;;1.27;0.93;;;;;;;25.28;37.20;101161.66;5013906;27;97060;-49
2022/06/29 20:33:06;;;;;;;0.77;0.77;;;;;;;25.21;37.42;101157.59;5020589;27;96953;-49
2022/06/29 20:35:33;;;;;;;1.00;0.97;;;;;;;25.14;37.75;101161.25;5020080;27;96889;-49
2022/06/29 20:37:59;;;;;;;1.33;1.27;;;;;;;25.13;37.60;101165.41;5018820;27;97377;-49
2022/06/29 20:40:24;;;;;;;1.10;0.87;;;;;;;25.07;37.79;101169.81;5015932;27;96785;-48
2022/06/29 20:42:49;;;;;;;1.10;0.90;;;;;;;25.01;37.83;101167.25;5017602;27;97356;-48
2022/06/29 20:45:20;;;;;;;1.03;0.93;;;;;;;24.95;37.89;101163.19;5017047;27;96927;-49
2022/06/29 20:47:47;;;;;;;1.53;1.10;;;;;;;24.85;38.03;101165.19;5017436;27;97708;-48
2022/06/29 20:50:12;;;;;;;1.30;1.20;;;;;;;24.75;38.42;101170.75;5017644;27;97038;-50
2022/06/29 20:52:38;;;;;;;0.77;0.77;;;;;;;24.65;38.50;101158.63;5017234;28;96902;-49
2022/06/29 20:55:04;;;;;;;1.00;0.90;;;;;;;24.57;38.52;101160.78;5022140;27;97504;-49
2022/06/29 20:57:29;;;;;;;1.37;1.10;;;;;;;24.52;38.45;101167.41;5018148;27;97158;-49
2022/06/29 20:59:54;;;;;;;2.70;1.50;;;;;;;24.42;38.94;101163.75;5021169;27;97004;-50
2022/06/29 21:02:20;;;;;;;1.20;1.10;;;;;;;24.34;39.07;101158.19;5016589;27;97243;-49
2022/06/29 21:04:45;;;;;;;1.00;0.80;;;;;;;24.33;39.09;101161.59;5017290;27;97051;-49
2022/06/29 21:07:11;;;;;;;1.00;1.00;;;;;;;24.28;39.20;101162.56;5019459;27;96941;-48
2022/06/29 21:09:37;;;;;;;1.20;1.10;;;;;;;24.25;38.83;101170.09;5013248;27;97107;-48
2022/06/29 21:12:04;;;;;;;0.93;0.93;;;;;;;24.17;39.21;101157.44;5018797;27;97029;-49
2022/06/29 21:14:30;;;;;;;1.53;1.00;;;;;;;24.04;39.44;101157.69;5021117;27;97355;-51
2022/06/29 21:16:55;;;;;;;0.90;0.90;;;;;;;23.95;39.66;101161.13;5016872;27;97557;-48
2022/06/29 21:19:21;;;;;;;2.20;1.10;;;;;;;23.88;39.68;101162.69;5015849;27;105919;-49
2022/06/29 21:21:46;;;;;;;1.47;1.37;;;;;;;23.80;39.64;101157.13;5016841;27;96905;-49
2022/06/29 21:24:11;;;;;;;1.10;0.90;;;;;;;23.73;39.86;101166.38;5015475;27;97259;-48
2022/06/29 21:26:37;;;;;;;1.00;1.00;;;;;;;23.69;39.87;101156.84;5016535;27;97484;-49
2022/06/29 21:29:02;;;;;;;1.10;1.00;;;;;;;23.62;39.84;101155.56;5017865;27;97188;-49
2022/06/29 21:31:28;;;;;;;1.00;1.00;;;;;;;23.54;40.08;101160.50;5018612;27;96901;-49
2022/06/29 21:33:53;;;;;;;1.23;1.00;;;;;;;23.51;40.15;101153.22;5016955;27;97190;-49
2022/06/29 21:36:19;;;;;;;4.67;0.90;;;;;;;23.48;40.15;101168.38;5019645;27;98545;-48
2022/06/29 21:38:46;;;;;;;2.10;1.10;;;;;;;23.39;40.30;101163.41;5020570;27;97006;-49
2022/06/29 21:41:12;;;;;;;2.50;1.27;;;;;;;23.34;40.57;101160.78;5019272;27;97020;-49
2022/06/29 21:43:38;;;;;;;0.87;0.87;;;;;;;23.27;40.80;101162.31;5018729;27;96826;-48
2022/06/29 21:46:04;;;;;;;1.00;1.00;;;;;;;23.27;40.61;101167.16;5014746;27;97748;-49
2022/06/29 21:51:14;;;;;;;0.83;0.83;;;;;;;23.18;40.73;101167.75;5041489;27;96646;-49
2022/06/29 21:53:42;;;;;;;0.83;0.83;;;;;;;23.15;40.83;101161.25;5025051;27;97346;-49
2022/06/29 21:56:08;;;;;;;1.00;1.00;;;;;;;23.10;40.99;101162.94;5017471;27;98108;-48
2022/06/29 21:58:33;;;;;;;1.13;1.03;;;;;;;23.11;41.08;101164.44;5035013;27;100202;-48
2022/06/29 22:00:59;;;;;;;1.10;1.03;;;;;;;23.08;41.18;101154.34;5039971;27;97197;-48
2022/06/29 22:03:25;;;;;;;1.93;0.90;;;;;;;23.08;41.38;101162.03;5042883;27;97368;-47
2022/06/29 22:05:50;;;;;;;5.27;1.40;;;;;;;23.02;41.46;101164.31;5040561;27;97508;-48
2022/06/29 22:08:16;;;;;;;1.50;1.23;;;;;;;22.95;41.32;101157.41;5041617;27;97346;-48
2022/06/29 22:10:41;;;;;;;2.00;1.30;;;;;;;22.91;41.59;101159.81;5033457;27;97483;-48
2022/06/29 22:13:06;;;;;;;1.23;1.13;;;;;;;22.91;41.60;101156.28;5023705;27;98487;-48
2022/06/29 22:15:32;;;;;;;1.63;1.53;;;;;;;22.91;41.65;101167.53;5017848;27;97562;-49
2022/06/29 22:17:57;;;;;;;1.00;1.00;;;;;;;22.88;41.63;101163.03;5025640;27;97144;-50
2022/06/29 22:20:23;;;;;;;1.23;1.10;;;;;;;22.82;41.74;101152.03;5025578;27;97221;-49
2022/06/29 22:22:49;;;;;;;0.97;0.97;;;;;;;22.72;41.80;101148.28;5021305;27;98280;-49
2022/06/29 22:25:15;;;;;;;4.47;1.23;;;;;;;22.64;41.94;101152.44;5024845;27;97364;-49
2022/06/29 22:27:41;;;;;;;1.00;0.90;;;;;;;22.57;42.13;101153.91;5025653;27;97238;-49
2022/06/29 22:30:07;;;;;;;1.00;0.87;;;;;;;22.56;42.40;101151.69;5025544;27;97178;-49
2022/06/29 22:32:32;;;;;;;1.90;1.40;;;;;;;;;;5022025;27;96651;-48
2022/06/29 22:34:58;;;;;;;1.60;1.50;;;;;;;22.51;42.39;101155.44;5018225;27;96779;-47
2022/06/29 22:37:23;;;;;;;1.13;1.03;;;;;;;22.50;42.43;101151.16;5024007;27;97099;-48
2022/06/29 22:39:48;;;;;;;1.43;1.07;;;;;;;22.43;42.47;101146.28;5024010;27;97367;-52
2022/06/29 22:42:14;;;;;;;1.27;1.17;;;;;;;22.39;42.59;101144.59;5022685;27;96873;-48
2022/06/29 22:44:40;;;;;;;2.20;1.00;;;;;;;22.37;42.56;101150.03;5022138;27;97467;-51
2022/06/29 22:47:05;;;;;;;1.00;1.00;;;;;;;22.36;42.57;101151.34;5014131;27;97150;-48
2022/06/29 22:49:30;;;;;;;0.87;0.87;;;;;;;22.33;42.64;101155.28;5015670;27;97310;-48